Time;durP1;ratioP1;P1;durP2;ratioP2;P2;SDS_P1;SDS_P2;PMS_P1;PMS_P2;Temp;Humidity;BMP_temperature;BMP_pressure;BME280_temperature;BME280_humidity;BME280_pressure;Samples;Min_cycle;Max_cycle;Signal;HPM_P1;HPM_P2
2023/03/18 00:02:23;;;;;;;0.35;0.35;;;13.00;99.90;;;;;;5095487;28;20373;-75
2023/03/18 00:04:50;;;;;;;8.35;3.55;;;13.10;99.90;;;;;;5095610;28;20028;-75
2023/03/18 00:07:16;;;;;;;0.20;0.20;;;13.10;99.90;;;;;;5095270;28;20019;-75
2023/03/18 00:09:42;;;;;;;0.13;0.13;;;13.10;99.90;;;;;;5095833;28;20396;-75
2023/03/18 00:12:07;;;;;;;6.95;2.67;;;13.10;99.90;;;;;;5095413;28;20035;-75
2023/03/18 00:14:37;;;;;;;0.50;0.50;;;13.00;99.90;;;;;;5095645;28;20032;-75
2023/03/18 00:17:04;;;;;;;0.82;0.82;;;13.10;99.90;;;;;;5094926;28;20039;-75
2023/03/18 00:19:32;;;;;;;1.65;0.47;;;13.10;99.90;;;;;;5095313;28;20111;-75
2023/03/18 00:21:58;;;;;;;0.00;0.00;;;13.10;99.90;;;;;;5095166;28;20034;-75
2023/03/18 00:24:26;;;;;;;1.08;0.68;;;13.10;99.90;;;;;;5095120;28;20036;-75
2023/03/18 00:26:52;;;;;;;0.38;0.30;;;13.10;99.90;;;;;;5095017;28;20012;-75
2023/03/18 00:29:18;;;;;;;2.08;1.38;;;13.10;99.90;;;;;;5094888;28;20077;-75
2023/03/18 00:31:45;;;;;;;0.10;0.10;;;13.20;99.90;;;;;;5093474;28;20020;-75
2023/03/18 00:34:11;;;;;;;1.25;0.95;;;13.20;99.90;;;;;;5095039;28;20035;-75
2023/03/18 00:36:37;;;;;;;3.63;1.77;;;13.20;99.90;;;;;;5093180;28;20016;-75
2023/03/18 00:39:03;;;;;;;5.47;1.30;;;13.20;99.90;;;;;;5094488;28;20050;-75
2023/03/18 00:41:31;;;;;;;0.00;0.00;;;12.90;99.90;;;;;;5093437;28;20411;-75
2023/03/18 00:43:57;;;;;;;0.73;0.70;;;13.10;99.90;;;;;;5093557;28;20476;-75
2023/03/18 00:46:26;;;;;;;0.10;0.10;;;13.10;99.90;;;;;;5094670;28;20028;-75
2023/03/18 00:48:54;;;;;;;0.00;0.00;;;13.10;99.90;;;;;;5093470;28;20032;-75
2023/03/18 00:51:21;;;;;;;0.08;0.08;;;13.20;99.90;;;;;;5076582;28;20443;-75
2023/03/18 00:53:50;;;;;;;0.95;0.73;;;13.20;99.90;;;;;;5094274;28;20421;-75
2023/03/18 00:56:19;;;;;;;1.60;1.50;;;13.10;99.90;;;;;;5093396;28;20028;-75
2023/03/18 00:58:45;;;;;;;0.30;0.30;;;12.90;99.90;;;;;;5093109;28;20494;-74
2023/03/18 01:01:12;;;;;;;7.18;1.75;;;13.00;99.90;;;;;;5093094;28;20484;-75
2023/03/18 01:03:42;;;;;;;0.10;0.10;;;13.00;99.90;;;;;;5092924;28;20016;-75
2023/03/18 01:06:11;;;;;;;0.98;0.88;;;13.00;99.90;;;;;;5094255;28;20067;-75
2023/03/18 01:08:38;;;;;;;4.15;1.23;;;12.90;99.90;;;;;;5092849;28;20123;-75
2023/03/18 01:11:05;;;;;;;0.60;0.60;;;12.90;99.90;;;;;;5094420;28;20039;-75
2023/03/18 01:13:31;;;;;;;13.32;1.13;;;13.00;99.90;;;;;;5092992;28;20040;-75
2023/03/18 01:15:58;;;;;;;0.80;0.75;;;13.00;99.90;;;;;;5093865;28;20046;-75
2023/03/18 01:18:24;;;;;;;0.20;0.20;;;12.80;99.90;;;;;;5092611;28;20038;-75
2023/03/18 01:20:50;;;;;;;1.75;1.38;;;12.60;99.90;;;;;;5092773;28;20109;-75
2023/03/18 01:23:19;;;;;;;0.45;0.45;;;12.60;99.90;;;;;;5076377;28;20119;-75
2023/03/18 01:25:45;;;;;;;0.55;0.55;;;12.50;99.90;;;;;;5092656;28;20499;-75
2023/03/18 01:28:17;;;;;;;1.57;1.43;;;12.50;99.90;;;;;;5092583;28;20020;-75
2023/03/18 01:30:43;;;;;;;0.10;0.10;;;12.60;99.90;;;;;;5092439;28;20453;-75
2023/03/18 01:33:10;;;;;;;0.47;0.40;;;12.50;99.90;;;;;;5092592;28;20114;-74
2023/03/18 01:35:37;;;;;;;2.63;1.75;;;12.60;99.90;;;;;;5092622;28;20034;-74
2023/03/18 01:38:04;;;;;;;7.53;3.15;;;12.50;99.90;;;;;;5091926;28;20051;-75
2023/03/18 01:40:35;;;;;;;2.58;1.33;;;12.60;99.90;;;;;;5092345;28;20020;-74
2023/03/18 01:43:16;;;;;;;14.90;1.40;;;12.40;99.90;;;;;;5092328;28;20475;-74
2023/03/18 01:45:54;;;;;;;0.30;0.30;;;12.50;99.90;;;;;;5092278;28;20379;-75
2023/03/18 01:48:24;;;;;;;0.80;0.80;;;12.70;99.90;;;;;;5092141;28;20024;-75
2023/03/18 01:50:58;;;;;;;1.40;0.77;;;12.70;99.90;;;;;;5092256;28;20048;-75
2023/03/18 01:53:26;;;;;;;;;;;12.80;99.90;;;;;;5092566;28;20050;-75
2023/03/18 01:55:52;;;;;;;23.48;1.55;;;12.80;99.90;;;;;;5092193;28;19912;-75
2023/03/18 01:58:23;;;;;;;3.40;2.22;;;12.60;99.90;;;;;;5091742;28;20503;-75
2023/03/18 02:00:59;;;;;;;0.20;0.20;;;12.60;99.90;;;;;;5092273;28;20035;-75
2023/03/18 02:03:26;;;;;;;3.20;1.20;;;12.60;99.90;;;;;;5091995;28;20123;-74
2023/03/18 02:05:52;;;;;;;0.10;0.10;;;12.60;99.90;;;;;;5091929;28;20040;-75
2023/03/18 02:08:18;;;;;;;2.17;0.40;;;12.70;99.90;;;;;;5091531;28;20061;-74
2023/03/18 02:10:45;;;;;;;0.98;0.47;;;12.60;99.90;;;;;;5091742;28;20063;-74
2023/03/18 02:13:13;;;;;;;1.52;1.30;;;12.50;99.90;;;;;;5091708;28;20020;-75
2023/03/18 02:15:46;;;;;;;0.30;0.30;;;12.60;99.90;;;;;;5092950;28;20043;-75
2023/03/18 02:18:18;;;;;;;5.10;3.28;;;12.70;99.90;;;;;;5093062;28;20115;-75
2023/03/18 02:21:06;;;;;;;1.00;1.00;;;12.60;99.90;;;;;;5091792;28;20031;-75
2023/03/18 02:24:04;;;;;;;0.40;0.40;;;12.60;99.90;;;;;;5074989;28;20070;-75
2023/03/18 02:27:00;;;;;;;0.98;0.98;;;12.50;99.90;;;;;;5091774;28;20020;-75
2023/03/18 02:29:35;;;;;;;0.10;0.10;;;12.40;99.90;;;;;;5091427;28;20434;-76
2023/03/18 02:32:06;;;;;;;0.28;0.28;;;12.60;99.90;;;;;;5091744;28;20036;-75
2023/03/18 02:34:34;;;;;;;0.38;0.30;;;12.70;99.90;;;;;;5091633;28;20024;-75
2023/03/18 02:37:00;;;;;;;1.58;1.48;;;12.70;99.90;;;;;;5091445;28;20029;-75
2023/03/18 02:39:28;;;;;;;1.15;1.05;;;12.70;99.90;;;;;;5091328;28;20043;-76
2023/03/18 02:41:56;;;;;;;1.17;0.30;;;12.60;99.90;;;;;;5091484;28;20020;-75
2023/03/18 02:44:22;;;;;;;2.85;1.30;;;12.60;99.90;;;;;;5091620;28;20145;-75
2023/03/18 02:47:17;;;;;;;0.77;0.77;;;12.50;99.90;;;;;;5092720;28;20051;-76
2023/03/18 02:49:43;;;;;;;0.10;0.10;;;12.50;99.90;;;;;;5091367;28;20028;-75
2023/03/18 02:52:11;;;;;;;1.45;1.35;;;12.30;99.90;;;;;;5091292;28;20062;-76
2023/03/18 02:54:36;;;;;;;1.10;1.00;;;12.30;99.90;;;;;;5091578;28;20484;-76
2023/03/18 02:57:02;;;;;;;0.20;0.20;;;12.30;99.90;;;;;;5079387;28;20539;-76
2023/03/18 02:59:31;;;;;;;0.82;0.82;;;12.30;99.90;;;;;;5091269;28;20142;-76
2023/03/18 03:01:57;;;;;;;0.50;0.50;;;12.40;99.90;;;;;;5091118;28;20020;-75
2023/03/18 03:04:24;;;;;;;0.25;0.25;;;12.50;99.90;;;;;;5091387;28;20020;-76
2023/03/18 03:06:53;;;;;;;0.10;0.10;;;12.40;99.90;;;;;;5091399;28;20020;-75
2023/03/18 03:09:31;;;;;;;0.65;0.65;;;12.50;99.90;;;;;;5091188;28;20391;-75
2023/03/18 03:11:57;;;;;;;0.45;0.45;;;12.30;99.90;;;;;;5091031;28;20119;-75
2023/03/18 03:14:25;;;;;;;0.17;0.17;;;12.20;99.90;;;;;;5091404;28;20054;-76
2023/03/18 03:16:56;;;;;;;1.30;1.20;;;12.40;99.90;;;;;;5091072;28;20028;-76
2023/03/18 03:19:22;;;;;;;0.50;0.43;;;12.40;99.90;;;;;;5090996;28;20034;-75
2023/03/18 03:21:48;;;;;;;1.02;0.50;;;12.40;99.90;;;;;;5094837;28;20115;-76
2023/03/18 03:24:14;;;;;;;1.65;1.13;;;12.30;99.90;;;;;;5094982;28;20024;-75
2023/03/18 03:26:39;;;;;;;1.90;1.58;;;12.30;99.90;;;;;;5096063;28;20425;-75
2023/03/18 03:29:06;;;;;;;0.57;0.57;;;12.10;99.90;;;;;;5084530;28;20044;-75
2023/03/18 03:31:32;;;;;;;0.38;0.38;;;12.10;99.90;;;;;;5095024;28;20055;-76
2023/03/18 03:33:58;;;;;;;5.18;1.77;;;12.00;99.90;;;;;;5094874;28;20514;-75
2023/03/18 03:36:24;;;;;;;1.42;1.33;;;12.10;99.90;;;;;;5095947;28;20051;-75
2023/03/18 03:38:50;;;;;;;1.50;1.30;;;12.00;99.90;;;;;;5096032;28;20044;-75
2023/03/18 03:41:16;;;;;;;0.98;0.28;;;12.00;99.90;;;;;;5094357;28;20466;-76
2023/03/18 03:43:43;;;;;;;1.77;1.00;;;11.90;99.90;;;;;;5094640;28;20027;-75
2023/03/18 03:46:09;;;;;;;3.58;2.67;;;11.80;99.90;;;;;;5095952;28;20050;-75
2023/03/18 03:48:37;;;;;;;1.02;0.73;;;11.80;99.90;;;;;;5094527;28;20058;-74
2023/03/18 03:51:06;;;;;;;1.00;0.85;;;11.80;99.90;;;;;;5090999;28;20025;-75
2023/03/18 03:53:32;;;;;;;1.38;1.27;;;11.80;99.90;;;;;;5089649;28;20024;-75
2023/03/18 03:55:58;;;;;;;5.18;2.45;;;11.80;99.90;;;;;;5076923;28;20030;-75
2023/03/18 03:58:25;;;;;;;1.90;1.58;;;11.70;99.90;;;;;;5095685;28;20032;-75
2023/03/18 04:00:51;;;;;;;9.68;4.75;;;11.60;99.90;;;;;;5094374;28;20035;-75
2023/03/18 04:03:17;;;;;;;4.55;1.85;;;11.60;99.90;;;;;;5094222;28;20038;-75
2023/03/18 04:05:43;;;;;;;6.28;1.15;;;11.60;99.90;;;;;;5094240;28;20024;-75
2023/03/18 04:08:09;;;;;;;1.08;0.98;;;11.50;99.90;;;;;;5094165;28;20034;-75
2023/03/18 04:10:37;;;;;;;0.52;0.52;;;11.40;99.90;;;;;;5093955;28;20024;-74
2023/03/18 04:13:05;;;;;;;2.60;1.00;;;11.50;99.90;;;;;;5094000;28;20063;-75
2023/03/18 04:15:31;;;;;;;3.88;2.58;;;11.50;99.90;;;;;;5093952;28;20488;-75
2023/03/18 04:18:05;;;;;;;1.85;1.45;;;11.50;99.90;;;;;;5094020;28;20373;-75
2023/03/18 04:20:33;;;;;;;4.68;2.45;;;11.50;99.90;;;;;;5094065;28;20487;-75
2023/03/18 04:22:59;;;;;;;0.10;0.10;;;11.40;99.90;;;;;;5095169;28;20050;-75
2023/03/18 04:25:26;;;;;;;0.30;0.30;;;11.40;99.90;;;;;;5079957;28;20369;-75
2023/03/18 04:27:52;;;;;;;0.45;0.45;;;11.40;99.90;;;;;;5093867;28;20032;-75
2023/03/18 04:30:22;;;;;;;0.30;0.30;;;11.30;99.90;;;;;;5093786;28;20020;-75
2023/03/18 04:33:04;;;;;;;0.20;0.20;;;11.30;99.90;;;;;;5093463;28;20055;-75
2023/03/18 04:35:31;;;;;;;1.40;1.30;;;11.30;99.90;;;;;;5093743;28;20030;-75
2023/03/18 04:37:57;;;;;;;6.22;1.77;;;11.20;99.90;;;;;;5094225;28;20119;-75
2023/03/18 04:40:23;;;;;;;0.50;0.50;;;11.10;99.90;;;;;;5076865;28;20036;-75
2023/03/18 04:42:49;;;;;;;2.67;0.95;;;11.20;99.90;;;;;;5093320;28;20043;-75
2023/03/18 04:45:20;;;;;;;1.23;1.15;;;11.10;99.90;;;;;;5093669;28;20032;-75
2023/03/18 04:47:46;;;;;;;2.90;2.03;;;11.10;99.90;;;;;;5093213;28;20027;-76
2023/03/18 04:50:13;;;;;;;0.15;0.15;;;11.10;99.90;;;;;;5093541;28;20373;-75
2023/03/18 04:52:40;;;;;;;0.38;0.38;;;10.90;99.90;;;;;;5093209;28;20373;-75
2023/03/18 04:55:08;;;;;;;1.27;0.90;;;10.90;99.90;;;;;;5093235;28;20059;-75
2023/03/18 04:57:37;;;;;;;3.10;1.98;;;10.90;99.90;;;;;;5093346;28;20472;-76
2023/03/18 05:00:10;;;;;;;4.90;2.85;;;10.90;99.90;;;;;;5093012;28;20038;-74
2023/03/18 05:02:37;;;;;;;3.27;2.40;;;10.70;99.90;;;;;;5076570;28;20027;-75
2023/03/18 05:05:03;;;;;;;1.10;1.10;;;10.60;99.90;;;;;;5094574;28;20026;-75
2023/03/18 05:07:30;;;;;;;6.70;2.00;;;10.60;99.90;;;;;;5092689;28;20364;-75
2023/03/18 05:10:05;;;;;;;4.82;2.60;;;10.60;99.90;;;;;;5092786;28;20024;-75
2023/03/18 05:12:32;;;;;;;0.82;0.82;;;10.50;99.90;;;;;;5093028;28;20020;-75
2023/03/18 05:14:58;;;;;;;12.10;2.03;;;10.60;99.90;;;;;;5092889;28;20447;-75
2023/03/18 05:17:24;;;;;;;7.03;3.92;;;10.50;99.90;;;;;;5092812;28;20036;-75
2023/03/18 05:19:57;;;;;;;4.68;1.95;;;10.40;99.90;;;;;;5092927;28;20050;-75
2023/03/18 05:22:23;;;;;;;3.08;2.72;;;10.40;99.90;;;;;;5093410;28;20091;-75
2023/03/18 05:24:56;;;;;;;12.07;4.63;;;10.30;99.90;;;;;;5093056;28;20027;-76
2023/03/18 05:27:26;;;;;;;4.05;2.17;;;10.40;99.90;;;;;;5092594;28;20024;-74
2023/03/18 05:30:09;;;;;;;3.13;2.33;;;10.30;99.90;;;;;;5092825;28;20081;-76
2023/03/18 05:32:42;;;;;;;10.02;3.53;;;10.30;99.90;;;;;;5092498;28;20077;-75
2023/03/18 05:35:10;;;;;;;3.50;2.25;;;10.30;99.90;;;;;;5092557;28;20119;-76
2023/03/18 05:37:44;;;;;;;12.45;4.72;;;10.20;99.90;;;;;;5064187;28;20023;-75
2023/03/18 05:40:11;;;;;;;1.15;0.75;;;10.20;99.90;;;;;;5092585;28;20070;-75
2023/03/18 05:42:39;;;;;;;5.72;1.77;;;10.20;99.90;;;;;;5092382;28;20023;-75
2023/03/18 05:45:06;;;;;;;4.40;2.15;;;10.30;99.90;;;;;;5091658;28;20080;-75
2023/03/18 05:47:35;;;;;;;17.15;3.80;;;10.30;99.90;;;;;;5092231;28;20016;-75
2023/03/18 05:50:07;;;;;;;3.35;2.00;;;10.20;99.90;;;;;;5091569;28;20024;-75
2023/03/18 05:52:35;;;;;;;7.28;2.92;;;10.20;99.90;;;;;;5091612;28;20038;-76
2023/03/18 05:55:05;;;;;;;0.50;0.50;;;10.20;99.90;;;;;;5092068;28;20028;-76
2023/03/18 05:57:35;;;;;;;1.52;1.42;;;10.20;99.90;;;;;;5075588;28;20476;-76
2023/03/18 06:00:04;;;;;;;11.45;3.90;;;10.20;99.90;;;;;;5091941;28;20396;-75
2023/03/18 06:02:41;;;;;;;3.40;1.55;;;10.10;99.90;;;;;;5093476;28;20420;-76
2023/03/18 06:05:07;;;;;;;2.10;1.20;;;10.10;99.90;;;;;;5093009;28;20113;-75
2023/03/18 06:07:33;;;;;;;0.22;0.22;;;10.10;99.90;;;;;;5074955;28;20028;-76
2023/03/18 06:09:59;;;;;;;6.43;4.38;;;10.20;99.90;;;;;;5092139;28;20031;-75
2023/03/18 06:12:26;;;;;;;3.15;2.28;;;10.20;99.90;;;;;;5091857;28;20028;-76
2023/03/18 06:14:53;;;;;;;7.20;4.05;;;10.20;99.90;;;;;;5091890;28;20051;-75
2023/03/18 06:17:20;;;;;;;1.88;1.23;;;10.20;99.90;;;;;;5091890;28;20024;-76
2023/03/18 06:19:47;;;;;;;8.10;5.68;;;10.20;99.90;;;;;;5074627;28;20039;-76
2023/03/18 06:22:15;;;;;;;3.17;2.45;;;10.20;99.90;;;;;;5091675;28;20102;-76
2023/03/18 06:24:42;;;;;;;9.75;4.30;;;10.20;99.90;;;;;;5091707;28;20024;-75
2023/03/18 06:27:08;;;;;;;1.08;1.05;;;10.20;99.90;;;;;;5091600;28;20476;-74
2023/03/18 06:29:35;;;;;;;7.68;2.28;;;10.20;99.90;;;;;;5091685;28;20020;-76
2023/03/18 06:32:07;;;;;;;4.78;3.58;;;10.20;99.90;;;;;;5091608;28;20039;-75
2023/03/18 06:34:35;;;;;;;0.82;0.82;;;10.20;99.90;;;;;;5074593;28;20380;-76
2023/03/18 06:37:02;;;;;;;3.50;2.50;;;10.30;99.90;;;;;;5091481;28;20024;-75
2023/03/18 06:39:29;;;;;;;6.47;4.07;;;10.40;99.90;;;;;;5091099;28;20048;-75
2023/03/18 06:41:55;;;;;;;4.28;2.25;;;10.40;99.90;;;;;;5091499;28;20031;-76
2023/03/18 06:44:29;;;;;;;1.90;1.48;;;10.50;99.90;;;;;;5091221;28;20020;-76
2023/03/18 06:47:00;;;;;;;1.17;0.63;;;10.60;99.90;;;;;;5091354;28;20051;-76
2023/03/18 06:49:29;;;;;;;2.17;1.98;;;10.60;99.90;;;;;;5074657;28;20480;-76
2023/03/18 06:52:04;;;;;;;4.03;2.45;;;10.60;99.90;;;;;;5091575;28;20028;-76
2023/03/18 06:54:31;;;;;;;13.98;6.13;;;10.60;99.90;;;;;;5091336;28;20020;-76
2023/03/18 06:57:00;;;;;;;16.17;3.95;;;10.60;99.90;;;;;;5095961;28;20051;-75
2023/03/18 06:59:26;;;;;;;3.22;1.95;;;10.70;99.90;;;;;;5095299;28;20046;-74
2023/03/18 07:01:53;;;;;;;9.23;4.78;;;10.70;99.90;;;;;;5095636;28;20021;-75
2023/03/18 07:04:22;;;;;;;4.50;3.35;;;10.80;99.90;;;;;;5095148;28;20035;-76
2023/03/18 07:06:49;;;;;;;11.63;6.03;;;10.90;99.90;;;;;;5095240;28;20112;-75
2023/03/18 07:09:15;;;;;;;4.85;3.22;;;11.00;99.90;;;;;;5097022;28;20032;-75
2023/03/18 07:11:47;;;;;;;8.20;4.97;;;11.00;99.90;;;;;;5095222;28;20028;-75
2023/03/18 07:14:18;;;;;;;15.57;7.85;;;11.10;99.90;;;;;;5095422;28;20093;-75
2023/03/18 07:16:44;;;;;;;12.43;5.30;;;11.00;99.90;;;;;;5095051;28;20028;-77
2023/03/18 07:19:11;;;;;;;12.77;8.57;;;11.10;99.90;;;;;;5094965;28;20396;-75
2023/03/18 07:21:37;;;;;;;18.83;6.97;;;11.10;99.90;;;;;;5094920;28;20028;-76
2023/03/18 07:24:03;;;;;;;19.30;4.20;;;11.20;99.90;;;;;;5094421;28;20036;-75
2023/03/18 07:26:29;;;;;;;5.47;2.05;;;11.30;99.90;;;;;;5051558;28;20104;-76
2023/03/18 07:28:55;;;;;;;1.35;1.23;;;11.40;99.90;;;;;;5068197;28;20074;-75
2023/03/18 07:31:21;;;;;;;11.48;3.53;;;11.30;99.90;;;;;;5079541;28;20024;-76
2023/03/18 07:33:48;;;;;;;7.68;4.35;;;11.20;99.90;;;;;;5077726;28;20016;-76
2023/03/18 07:36:14;;;;;;;5.70;3.67;;;11.20;99.90;;;;;;5078014;28;20024;-76
2023/03/18 07:38:41;;;;;;;9.98;5.63;;;11.20;99.90;;;;;;5077668;28;20505;-76
2023/03/18 07:41:07;;;;;;;3.05;2.50;;;11.20;99.90;;;;;;5075358;28;20423;-76
2023/03/18 07:43:34;;;;;;;7.63;5.30;;;11.20;99.90;;;;;;5076250;28;20036;-75
2023/03/18 07:45:59;;;;;;;3.38;2.47;;;11.10;99.90;;;;;;5067555;28;20073;-75
2023/03/18 07:48:25;;;;;;;0.28;0.28;;;11.10;99.90;;;;;;5082774;28;20379;-75
2023/03/18 07:50:51;;;;;;;11.30;3.92;;;11.20;99.90;;;;;;5083864;28;20025;-75
2023/03/18 07:53:17;;;;;;;4.63;2.80;;;11.30;99.90;;;;;;5077315;28;20472;-76
2023/03/18 07:55:43;;;;;;;10.85;3.10;;;11.20;99.90;;;;;;5072253;28;20039;-76
2023/03/18 07:58:09;;;;;;;4.78;3.42;;;11.30;99.90;;;;;;5076124;28;20024;-75
2023/03/18 08:00:35;;;;;;;1.17;0.90;;;11.40;99.90;;;;;;5080021;28;20044;-76
2023/03/18 08:03:00;;;;;;;4.70;2.72;;;11.40;99.90;;;;;;5078186;28;20017;-75
2023/03/18 08:05:26;;;;;;;1.92;1.83;;;11.50;99.90;;;;;;5070489;28;20095;-76
2023/03/18 08:07:52;;;;;;;4.40;2.03;;;11.60;99.90;;;;;;5077824;28;20081;-75
2023/03/18 08:10:18;;;;;;;1.60;1.33;;;11.60;99.90;;;;;;5066060;28;20013;-76
2023/03/18 08:12:44;;;;;;;0.98;0.88;;;11.80;99.90;;;;;;5055127;28;20037;-76
2023/03/18 08:15:10;;;;;;;2.38;1.95;;;11.80;99.90;;;;;;5081093;28;20032;-75
2023/03/18 08:17:37;;;;;;;4.28;2.35;;;12.00;99.90;;;;;;5082600;28;20032;-75
2023/03/18 08:20:03;;;;;;;3.58;2.45;;;12.10;99.90;;;;;;5079435;28;20114;-75
2023/03/18 08:22:29;;;;;;;6.05;3.70;;;12.40;99.90;;;;;;5072482;28;20017;-75
2023/03/18 08:24:56;;;;;;;11.70;6.45;;;12.40;99.90;;;;;;5063476;28;20029;-76
2023/03/18 08:27:23;;;;;;;9.07;3.33;;;12.40;99.90;;;;;;5075860;28;20025;-76
2023/03/18 08:29:49;;;;;;;2.60;2.33;;;12.40;99.90;;;;;;5075300;28;20489;-76
2023/03/18 08:32:15;;;;;;;8.98;1.35;;;12.50;99.90;;;;;;5068946;28;20103;-75
2023/03/18 08:34:42;;;;;;;6.30;2.90;;;12.60;99.90;;;;;;5063649;28;20077;-76
2023/03/18 08:37:08;;;;;;;0.43;0.43;;;12.60;99.90;;;;;;5079554;28;20028;-76
2023/03/18 08:39:35;;;;;;;11.70;2.28;;;12.80;99.90;;;;;;5079956;28;20503;-75
2023/03/18 08:42:04;;;;;;;3.42;2.30;;;13.00;99.90;;;;;;5079817;28;20024;-74
2023/03/18 08:44:30;;;;;;;8.68;2.97;;;13.10;99.90;;;;;;5072212;28;20020;-75
2023/03/18 08:46:56;;;;;;;6.10;1.88;;;13.30;99.90;;;;;;5059453;28;20035;-75
2023/03/18 08:49:23;;;;;;;4.53;2.15;;;13.30;99.90;;;;;;5074859;28;20050;-75
2023/03/18 08:51:50;;;;;;;6.18;2.55;;;13.70;99.90;;;;;;5081447;28;20028;-75
2023/03/18 08:54:20;;;;;;;0.82;0.75;;;13.80;99.90;;;;;;5074115;28;20020;-76
2023/03/18 08:56:46;;;;;;;2.25;1.33;;;13.80;99.90;;;;;;5058461;28;20032;-75
2023/03/18 08:59:12;;;;;;;7.40;1.77;;;14.00;99.90;;;;;;5081251;28;20459;-76
2023/03/18 09:01:38;;;;;;;0.38;0.38;;;14.00;99.90;;;;;;5091396;28;20099;-76
2023/03/18 09:04:04;;;;;;;0.95;0.95;;;14.20;99.90;;;;;;5088462;28;20036;-75
2023/03/18 09:06:30;;;;;;;4.95;2.58;;;14.30;99.90;;;;;;5070254;28;20122;-75
2023/03/18 09:08:56;;;;;;;3.33;2.17;;;14.20;99.90;;;;;;5085355;28;20029;-76
2023/03/18 09:11:22;;;;;;;1.80;1.35;;;14.00;99.90;;;;;;5061771;28;20040;-75
2023/03/18 09:13:48;;;;;;;9.93;3.20;;;13.90;99.90;;;;;;5059597;28;20024;-75
2023/03/18 09:16:14;;;;;;;11.45;3.25;;;13.80;99.90;;;;;;5071776;28;20028;-75
2023/03/18 09:18:39;;;;;;;1.77;1.23;;;13.90;99.90;;;;;;5072355;28;20028;-75
2023/03/18 09:21:05;;;;;;;0.93;0.63;;;14.10;99.90;;;;;;5064231;28;20029;-75
2023/03/18 09:23:33;;;;;;;0.95;0.85;;;13.90;99.90;;;;;;5070280;28;20474;-75
2023/03/18 09:25:59;;;;;;;2.33;1.08;;;14.00;99.90;;;;;;5074569;28;20021;-75
2023/03/18 09:28:25;;;;;;;1.35;1.17;;;14.00;99.90;;;;;;5080167;28;20460;-75
2023/03/18 09:30:51;;;;;;;3.72;1.17;;;13.80;99.90;;;;;;5078998;28;20025;-74
2023/03/18 09:33:18;;;;;;;4.93;4.05;;;13.80;99.90;;;;;;5076055;28;20502;-75
2023/03/18 09:35:44;;;;;;;1.35;1.02;;;13.80;99.90;;;;;;5075545;28;20103;-75
2023/03/18 09:38:15;;;;;;;1.95;1.23;;;13.50;99.90;;;;;;5077725;28;20119;-75
2023/03/18 09:41:11;;;;;;;3.80;3.45;;;13.40;99.90;;;;;;5082286;28;20123;-75
2023/03/18 09:43:51;;;;;;;4.78;2.42;;;13.40;99.90;;;;;;5073439;28;20044;-75
2023/03/18 09:46:23;;;;;;;0.25;0.25;;;13.40;99.90;;;;;;5069197;28;20032;-76
2023/03/18 09:49:31;;;;;;;1.88;1.52;;;13.50;99.90;;;;;;5073873;28;20094;-75
2023/03/18 09:52:22;;;;;;;0.52;0.52;;;13.40;99.90;;;;;;5076366;28;20464;-75
2023/03/18 09:55:17;;;;;;;1.98;1.88;;;13.30;99.90;;;;;;5073319;28;20115;-75
2023/03/18 09:57:45;;;;;;;0.13;0.13;;;13.40;99.90;;;;;;5070597;28;20043;-75
2023/03/18 10:00:28;;;;;;;5.78;1.23;;;13.50;99.90;;;;;;5066888;28;20438;-75
2023/03/18 10:03:02;;;;;;;1.52;1.27;;;13.60;99.90;;;;;;5092557;28;20031;-75
2023/03/18 10:05:34;;;;;;;1.05;0.75;;;13.50;99.90;;;;;;5085336;28;20035;-76
2023/03/18 10:08:29;;;;;;;1.02;0.77;;;13.40;99.90;;;;;;5068545;28;20069;-75
2023/03/18 10:11:05;;;;;;;1.52;0.70;;;13.50;99.90;;;;;;5074267;28;20045;-75
2023/03/18 10:13:36;;;;;;;0.35;0.35;;;13.50;99.90;;;;;;5068653;28;20033;-75
2023/03/18 10:16:06;;;;;;;1.70;0.68;;;13.60;99.90;;;;;;5052573;28;20078;-75
2023/03/18 10:18:38;;;;;;;0.15;0.15;;;13.60;99.90;;;;;;5070805;28;20476;-76
2023/03/18 10:21:30;;;;;;;3.65;2.47;;;13.90;99.90;;;;;;5055333;28;20398;-75
2023/03/18 10:23:56;;;;;;;4.30;2.35;;;13.70;99.90;;;;;;5056270;28;20480;-75
2023/03/18 10:26:24;;;;;;;3.53;1.75;;;13.60;99.90;;;;;;5072028;28;20029;-75
2023/03/18 10:28:59;;;;;;;1.02;0.98;;;13.60;99.90;;;;;;5072492;28;20028;-75
2023/03/18 10:31:30;;;;;;;2.10;1.33;;;13.50;99.90;;;;;;5056481;28;20522;-75
2023/03/18 10:34:05;;;;;;;1.35;1.20;;;13.50;99.90;;;;;;5059016;28;20040;-75
2023/03/18 10:36:42;;;;;;;3.75;1.13;;;13.40;99.90;;;;;;5054628;28;20028;-75
2023/03/18 10:39:15;;;;;;;2.85;1.02;;;13.70;99.90;;;;;;5056953;28;20098;-75
2023/03/18 10:41:46;;;;;;;1.20;1.10;;;13.60;99.90;;;;;;5073918;28;20040;-75
2023/03/18 10:44:17;;;;;;;6.43;0.93;;;13.60;99.90;;;;;;5059717;28;20040;-75
2023/03/18 10:46:45;;;;;;;0.43;0.43;;;13.50;99.90;;;;;;5073318;28;20020;-75
2023/03/18 10:49:20;;;;;;;0.75;0.65;;;13.60;99.90;;;;;;5071345;28;20021;-75
2023/03/18 10:52:18;;;;;;;3.17;1.38;;;13.60;99.90;;;;;;5070672;28;20036;-72
2023/03/18 10:54:49;;;;;;;0.80;0.80;;;13.70;99.90;;;;;;5069249;28;20468;-72
2023/03/18 10:57:15;;;;;;;1.75;0.98;;;13.80;99.90;;;;;;5069466;28;20064;-72
2023/03/18 10:59:46;;;;;;;1.60;0.88;;;14.00;99.90;;;;;;5072569;28;20453;-75
2023/03/18 11:02:18;;;;;;;3.85;1.67;;;14.20;99.90;;;;;;5092865;28;20043;-76
2023/03/18 11:05:25;;;;;;;1.73;0.82;;;14.40;99.90;;;;;;5092100;28;20036;-75
2023/03/18 11:07:58;;;;;;;1.58;0.85;;;14.40;99.90;;;;;;5088991;28;20041;-76
2023/03/18 11:10:30;;;;;;;1.65;0.90;;;14.30;99.90;;;;;;5095809;28;20353;-72
2023/03/18 11:13:05;;;;;;;0.65;0.65;;;14.40;99.90;;;;;;5092552;28;20412;-75
2023/03/18 11:15:47;;;;;;;0.40;0.40;;;14.70;99.90;;;;;;5071576;28;20020;-76
2023/03/18 11:18:22;;;;;;;1.88;1.10;;;15.30;99.90;;;;;;5056607;28;20469;-72
2023/03/18 11:20:59;;;;;;;0.45;0.45;;;15.60;99.90;;;;;;5074466;28;20090;-73
2023/03/18 11:26:21;;;;;;;3.28;2.33;;;15.90;99.90;;;;;;5061646;28;20024;-76
2023/03/18 11:28:47;;;;;;;3.03;1.73;;;16.10;99.90;;;;;;5071746;28;20524;-75
2023/03/18 11:31:17;;;;;;;0.65;0.60;;;16.20;99.90;;;;;;5064530;28;20159;-75
2023/03/18 11:33:43;;;;;;;2.75;1.30;;;16.00;99.90;;;;;;5054116;28;20041;-73
2023/03/18 11:36:22;;;;;;;0.80;0.75;;;16.00;99.90;;;;;;5052591;28;20032;-76
2023/03/18 11:39:00;;;;;;;1.95;1.10;;;15.60;99.90;;;;;;5065231;28;20485;-74
2023/03/18 11:41:28;;;;;;;3.60;1.42;;;15.70;99.90;;;;;;5071710;28;20111;-75
2023/03/18 11:44:04;;;;;;;1.88;1.00;;;15.50;99.90;;;;;;5074253;28;20586;-75
2023/03/18 11:46:37;;;;;;;2.60;1.52;;;15.60;99.90;;;;;;5075348;28;20024;-75
2023/03/18 11:49:03;;;;;;;2.30;1.00;;;15.80;99.90;;;;;;5075382;28;20044;-75
2023/03/18 11:51:29;;;;;;;2.33;0.80;;;16.40;99.90;;;;;;5075215;28;20028;-75
2023/03/18 11:54:15;;;;;;;0.93;0.80;;;16.30;99.90;;;;;;5075124;28;20032;-75
2023/03/18 11:57:14;;;;;;;2.38;1.50;;;16.20;99.90;;;;;;5064003;28;20480;-76
2023/03/18 11:59:57;;;;;;;1.33;0.63;;;15.80;99.90;;;;;;5075353;28;20056;-75
2023/03/18 12:02:57;;;;;;;0.68;0.30;;;16.50;99.90;;;;;;5085800;28;20040;-76
2023/03/18 12:05:50;;;;;;;0.70;0.70;;;17.70;99.90;;;;;;5078411;28;20043;-74
2023/03/18 12:08:46;;;;;;;1.10;0.75;;;18.40;99.90;;;;;;5074301;28;20503;-75
2023/03/18 12:11:31;;;;;;;0.32;0.32;;;18.50;99.90;;;;;;5068162;28;20045;-74
2023/03/18 12:14:19;;;;;;;1.65;0.95;;;18.60;99.90;;;;;;5070159;28;20060;-75
2023/03/18 12:17:06;;;;;;;1.23;0.85;;;17.90;99.90;;;;;;5058260;28;20029;-73
2023/03/18 12:19:34;;;;;;;0.00;0.00;;;17.30;99.90;;;;;;5064993;28;20106;-75
2023/03/18 12:22:21;;;;;;;5.30;0.82;;;16.90;99.90;;;;;;5073560;28;20040;-72
2023/03/18 12:25:14;;;;;;;3.50;0.40;;;16.60;99.90;;;;;;5071351;28;20056;-72
2023/03/18 12:27:48;;;;;;;0.32;0.32;;;17.10;99.90;;;;;;5074375;28;20421;-73
2023/03/18 12:30:18;;;;;;;2.40;1.08;;;17.90;99.90;;;;;;5073584;28;20051;-75
2023/03/18 12:33:13;;;;;;;1.45;0.45;;;17.60;99.90;;;;;;5074439;28;20035;-76
2023/03/18 12:35:38;;;;;;;3.30;1.15;;;17.50;99.90;;;;;;5073031;28;20376;-73
2023/03/18 12:38:32;;;;;;;7.50;0.70;;;18.10;99.90;;;;;;5072567;28;20024;-75
2023/03/18 12:41:20;;;;;;;0.03;0.03;;;19.00;99.90;;;;;;5070320;28;20385;-73
2023/03/18 12:44:13;;;;;;;0.63;0.63;;;19.40;99.90;;;;;;5064609;28;20074;-71
2023/03/18 12:46:53;;;;;;;1.67;0.60;;;19.10;99.90;;;;;;5067446;28;20028;-74
2023/03/18 12:49:33;;;;;;;0.20;0.20;;;18.60;99.90;;;;;;5065283;28;20078;-75
2023/03/18 12:52:09;;;;;;;0.63;0.63;;;19.00;99.90;;;;;;5061098;28;20028;-74
2023/03/18 12:54:42;;;;;;;0.60;0.38;;;18.70;99.90;;;;;;5064149;28;20064;-71
2023/03/18 12:57:34;;;;;;;0.75;0.70;;;19.40;99.90;;;;;;5065775;28;20031;-71
2023/03/18 13:00:09;;;;;;;1.35;0.40;;;19.20;99.90;;;;;;5077436;28;20036;-72
2023/03/18 13:02:53;;;;;;;1.30;0.15;;;19.40;99.80;;;;;;5094375;28;20036;-74
2023/03/18 13:05:26;;;;;;;1.23;0.63;;;19.90;99.60;;;;;;5093802;28;20031;-73
2023/03/18 13:08:21;;;;;;;0.52;0.30;;;19.50;98.80;;;;;;5093592;28;20043;-71